sensor_id;sensor_type;location;lat;lon;timestamp;P1;durP1;ratioP1;P2;durP2;ratioP2
69534;SDS011;56754;51.568;5.048;2024-03-29T00:00:24;3.53;;;0.60;;
69534;SDS011;56754;51.568;5.048;2024-03-29T00:02:49;3.93;;;0.90;;
69534;SDS011;56754;51.568;5.048;2024-03-29T00:05:15;2.90;;;0.30;;
69534;SDS011;56754;51.568;5.048;2024-03-29T00:07:40;2.15;;;0.38;;
69534;SDS011;56754;51.568;5.048;2024-03-29T00:10:05;3.20;;;0.50;;
69534;SDS011;56754;51.568;5.048;2024-03-29T00:12:31;2.50;;;0.40;;
69534;SDS011;56754;51.568;5.048;2024-03-29T00:14:56;3.47;;;0.50;;
69534;SDS011;56754;51.568;5.048;2024-03-29T00:17:23;2.63;;;0.30;;
69534;SDS011;56754;51.568;5.048;2024-03-29T00:19:48;2.70;;;0.33;;
69534;SDS011;56754;51.568;5.048;2024-03-29T00:22:14;4.05;;;0.30;;
69534;SDS011;56754;51.568;5.048;2024-03-29T00:24:39;4.57;;;0.40;;
69534;SDS011;56754;51.568;5.048;2024-03-29T00:27:04;3.23;;;0.43;;
69534;SDS011;56754;51.568;5.048;2024-03-29T00:29:30;4.93;;;0.50;;
69534;SDS011;56754;51.568;5.048;2024-03-29T00:31:55;3.10;;;0.30;;
69534;SDS011;56754;51.568;5.048;2024-03-29T00:34:20;3.23;;;0.33;;
69534;SDS011;56754;51.568;5.048;2024-03-29T00:36:46;3.33;;;0.40;;
69534;SDS011;56754;51.568;5.048;2024-03-29T00:39:14;4.30;;;0.40;;
69534;SDS011;56754;51.568;5.048;2024-03-29T00:41:40;6.83;;;0.50;;
69534;SDS011;56754;51.568;5.048;2024-03-29T00:44:05;2.67;;;0.30;;
69534;SDS011;56754;51.568;5.048;2024-03-29T00:46:30;2.57;;;0.30;;
69534;SDS011;56754;51.568;5.048;2024-03-29T00:48:55;3.03;;;0.40;;
69534;SDS011;56754;51.568;5.048;2024-03-29T00:51:21;3.47;;;0.40;;
69534;SDS011;56754;51.568;5.048;2024-03-29T00:53:46;2.77;;;0.30;;
69534;SDS011;56754;51.568;5.048;2024-03-29T00:56:15;2.58;;;0.25;;
69534;SDS011;56754;51.568;5.048;2024-03-29T00:58:40;2.85;;;0.43;;
69534;SDS011;56754;51.568;5.048;2024-03-29T01:01:05;3.37;;;0.47;;
69534;SDS011;56754;51.568;5.048;2024-03-29T01:03:31;3.53;;;0.40;;
69534;SDS011;56754;51.568;5.048;2024-03-29T01:05:56;4.80;;;0.40;;
69534;SDS011;56754;51.568;5.048;2024-03-29T01:08:22;3.27;;;0.50;;
69534;SDS011;56754;51.568;5.048;2024-03-29T01:10:47;2.78;;;0.30;;
69534;SDS011;56754;51.568;5.048;2024-03-29T01:13:12;3.70;;;0.40;;
69534;SDS011;56754;51.568;5.048;2024-03-29T01:15:38;2.63;;;0.40;;
69534;SDS011;56754;51.568;5.048;2024-03-29T01:18:03;2.80;;;0.30;;
69534;SDS011;56754;51.568;5.048;2024-03-29T01:20:29;3.38;;;0.30;;
69534;SDS011;56754;51.568;5.048;2024-03-29T01:22:54;3.17;;;0.40;;
69534;SDS011;56754;51.568;5.048;2024-03-29T01:25:19;4.03;;;0.30;;
69534;SDS011;56754;51.568;5.048;2024-03-29T01:27:44;2.57;;;0.27;;
69534;SDS011;56754;51.568;5.048;2024-03-29T01:30:10;3.50;;;0.30;;
69534;SDS011;56754;51.568;5.048;2024-03-29T01:32:35;3.80;;;0.38;;
69534;SDS011;56754;51.568;5.048;2024-03-29T01:35:01;2.37;;;0.30;;
69534;SDS011;56754;51.568;5.048;2024-03-29T01:37:26;2.77;;;0.40;;
69534;SDS011;56754;51.568;5.048;2024-03-29T01:39:51;4.83;;;0.43;;
69534;SDS011;56754;51.568;5.048;2024-03-29T01:42:17;2.30;;;0.20;;
69534;SDS011;56754;51.568;5.048;2024-03-29T01:44:42;2.97;;;0.30;;
69534;SDS011;56754;51.568;5.048;2024-03-29T01:47:07;4.47;;;0.43;;
69534;SDS011;56754;51.568;5.048;2024-03-29T01:49:33;3.88;;;0.50;;
69534;SDS011;56754;51.568;5.048;2024-03-29T01:52:00;3.93;;;0.30;;
69534;SDS011;56754;51.568;5.048;2024-03-29T01:54:28;2.63;;;0.40;;
69534;SDS011;56754;51.568;5.048;2024-03-29T01:56:53;5.05;;;0.60;;
69534;SDS011;56754;51.568;5.048;2024-03-29T01:59:22;2.73;;;0.30;;
69534;SDS011;56754;51.568;5.048;2024-03-29T02:01:50;5.03;;;0.32;;
69534;SDS011;56754;51.568;5.048;2024-03-29T02:04:15;2.65;;;0.30;;
69534;SDS011;56754;51.568;5.048;2024-03-29T02:06:41;2.40;;;0.50;;
69534;SDS011;56754;51.568;5.048;2024-03-29T02:09:07;2.27;;;0.30;;
69534;SDS011;56754;51.568;5.048;2024-03-29T02:11:33;4.53;;;0.67;;
69534;SDS011;56754;51.568;5.048;2024-03-29T02:14:00;4.57;;;0.50;;
69534;SDS011;56754;51.568;5.048;2024-03-29T02:16:26;1.58;;;0.25;;
69534;SDS011;56754;51.568;5.048;2024-03-29T02:18:51;2.67;;;0.45;;
69534;SDS011;56754;51.568;5.048;2024-03-29T02:21:17;3.87;;;0.37;;
69534;SDS011;56754;51.568;5.048;2024-03-29T02:23:46;4.33;;;0.43;;
69534;SDS011;56754;51.568;5.048;2024-03-29T02:26:12;2.78;;;0.30;;
69534;SDS011;56754;51.568;5.048;2024-03-29T02:28:38;3.97;;;0.40;;
69534;SDS011;56754;51.568;5.048;2024-03-29T02:31:03;3.93;;;0.40;;
69534;SDS011;56754;51.568;5.048;2024-03-29T02:33:29;3.20;;;0.68;;
69534;SDS011;56754;51.568;5.048;2024-03-29T02:35:55;3.27;;;0.30;;
69534;SDS011;56754;51.568;5.048;2024-03-29T02:38:20;2.07;;;0.40;;
69534;SDS011;56754;51.568;5.048;2024-03-29T02:40:45;2.70;;;0.38;;
69534;SDS011;56754;51.568;5.048;2024-03-29T02:43:11;5.83;;;0.53;;
69534;SDS011;56754;51.568;5.048;2024-03-29T02:45:36;2.27;;;0.20;;
69534;SDS011;56754;51.568;5.048;2024-03-29T02:48:01;2.23;;;0.37;;
69534;SDS011;56754;51.568;5.048;2024-03-29T02:50:27;1.83;;;0.20;;
69534;SDS011;56754;51.568;5.048;2024-03-29T02:52:52;2.85;;;0.20;;
69534;SDS011;56754;51.568;5.048;2024-03-29T02:55:17;3.67;;;0.30;;
69534;SDS011;56754;51.568;5.048;2024-03-29T02:57:43;3.07;;;0.30;;
69534;SDS011;56754;51.568;5.048;2024-03-29T03:00:08;4.07;;;0.60;;
69534;SDS011;56754;51.568;5.048;2024-03-29T03:02:37;2.40;;;0.38;;
69534;SDS011;56754;51.568;5.048;2024-03-29T03:05:03;2.60;;;0.40;;
69534;SDS011;56754;51.568;5.048;2024-03-29T03:07:28;2.80;;;0.20;;
69534;SDS011;56754;51.568;5.048;2024-03-29T03:09:53;4.07;;;0.20;;
69534;SDS011;56754;51.568;5.048;2024-03-29T03:12:19;3.90;;;0.30;;
69534;SDS011;56754;51.568;5.048;2024-03-29T03:14:44;2.13;;;0.30;;
69534;SDS011;56754;51.568;5.048;2024-03-29T03:17:10;2.33;;;0.28;;
69534;SDS011;56754;51.568;5.048;2024-03-29T03:19:36;4.27;;;0.40;;
69534;SDS011;56754;51.568;5.048;2024-03-29T03:22:02;3.10;;;0.37;;
69534;SDS011;56754;51.568;5.048;2024-03-29T03:24:27;1.80;;;0.20;;
69534;SDS011;56754;51.568;5.048;2024-03-29T03:26:52;1.40;;;0.20;;
69534;SDS011;56754;51.568;5.048;2024-03-29T03:29:17;2.80;;;0.20;;
69534;SDS011;56754;51.568;5.048;2024-03-29T03:31:43;2.73;;;0.30;;
69534;SDS011;56754;51.568;5.048;2024-03-29T03:34:08;3.53;;;0.30;;
69534;SDS011;56754;51.568;5.048;2024-03-29T03:36:33;1.27;;;0.13;;
69534;SDS011;56754;51.568;5.048;2024-03-29T03:38:58;3.33;;;0.30;;
69534;SDS011;56754;51.568;5.048;2024-03-29T03:41:24;2.33;;;0.20;;
69534;SDS011;56754;51.568;5.048;2024-03-29T03:43:52;2.65;;;0.35;;
69534;SDS011;56754;51.568;5.048;2024-03-29T03:46:17;2.57;;;0.30;;
69534;SDS011;56754;51.568;5.048;2024-03-29T03:48:43;3.23;;;0.30;;
69534;SDS011;56754;51.568;5.048;2024-03-29T03:51:08;1.33;;;0.20;;
69534;SDS011;56754;51.568;5.048;2024-03-29T03:53:33;2.20;;;0.20;;
69534;SDS011;56754;51.568;5.048;2024-03-29T03:55:59;2.23;;;0.23;;
69534;SDS011;56754;51.568;5.048;2024-03-29T03:58:27;3.33;;;0.30;;
69534;SDS011;56754;51.568;5.048;2024-03-29T04:00:52;1.48;;;0.20;;
69534;SDS011;56754;51.568;5.048;2024-03-29T04:03:17;1.73;;;0.20;;
69534;SDS011;56754;51.568;5.048;2024-03-29T04:05:43;1.77;;;0.20;;
69534;SDS011;56754;51.568;5.048;2024-03-29T04:08:08;2.80;;;0.20;;
69534;SDS011;56754;51.568;5.048;2024-03-29T04:10:37;1.63;;;0.20;;
69534;SDS011;56754;51.568;5.048;2024-03-29T04:13:03;3.30;;;0.57;;
69534;SDS011;56754;51.568;5.048;2024-03-29T04:15:28;0.93;;;0.10;;
69534;SDS011;56754;51.568;5.048;2024-03-29T04:17:54;3.60;;;0.30;;
69534;SDS011;56754;51.568;5.048;2024-03-29T04:20:20;2.20;;;0.10;;
69534;SDS011;56754;51.568;5.048;2024-03-29T04:22:46;2.85;;;0.40;;
69534;SDS011;56754;51.568;5.048;2024-03-29T04:25:11;2.10;;;0.20;;
69534;SDS011;56754;51.568;5.048;2024-03-29T04:27:37;2.67;;;0.30;;
69534;SDS011;56754;51.568;5.048;2024-03-29T04:30:02;2.08;;;0.30;;
69534;SDS011;56754;51.568;5.048;2024-03-29T04:32:27;3.13;;;0.50;;
69534;SDS011;56754;51.568;5.048;2024-03-29T04:34:56;2.20;;;0.20;;
69534;SDS011;56754;51.568;5.048;2024-03-29T04:37:21;2.17;;;0.20;;
69534;SDS011;56754;51.568;5.048;2024-03-29T04:39:47;3.53;;;0.20;;
69534;SDS011;56754;51.568;5.048;2024-03-29T04:42:12;1.70;;;0.20;;
69534;SDS011;56754;51.568;5.048;2024-03-29T04:44:38;1.50;;;0.20;;
69534;SDS011;56754;51.568;5.048;2024-03-29T04:47:04;2.50;;;0.20;;
69534;SDS011;56754;51.568;5.048;2024-03-29T04:49:30;1.65;;;0.47;;
69534;SDS011;56754;51.568;5.048;2024-03-29T04:51:55;1.87;;;0.20;;
69534;SDS011;56754;51.568;5.048;2024-03-29T04:54:20;1.77;;;0.20;;
69534;SDS011;56754;51.568;5.048;2024-03-29T04:56:46;1.30;;;0.20;;
69534;SDS011;56754;51.568;5.048;2024-03-29T04:59:11;2.80;;;0.23;;
69534;SDS011;56754;51.568;5.048;2024-03-29T05:01:36;1.70;;;0.27;;
69534;SDS011;56754;51.568;5.048;2024-03-29T05:04:02;0.97;;;0.20;;
69534;SDS011;56754;51.568;5.048;2024-03-29T05:06:27;2.10;;;0.20;;
69534;SDS011;56754;51.568;5.048;2024-03-29T05:08:54;2.17;;;0.30;;
69534;SDS011;56754;51.568;5.048;2024-03-29T05:11:19;2.13;;;0.30;;
69534;SDS011;56754;51.568;5.048;2024-03-29T05:13:45;0.80;;;0.15;;
69534;SDS011;56754;51.568;5.048;2024-03-29T05:16:10;3.67;;;0.30;;
69534;SDS011;56754;51.568;5.048;2024-03-29T05:18:35;3.07;;;0.33;;
69534;SDS011;56754;51.568;5.048;2024-03-29T05:21:00;3.30;;;0.40;;
69534;SDS011;56754;51.568;5.048;2024-03-29T05:23:26;2.13;;;0.20;;
69534;SDS011;56754;51.568;5.048;2024-03-29T05:25:51;2.20;;;0.30;;
69534;SDS011;56754;51.568;5.048;2024-03-29T05:28:16;3.40;;;0.33;;
69534;SDS011;56754;51.568;5.048;2024-03-29T05:30:42;0.93;;;0.10;;
69534;SDS011;56754;51.568;5.048;2024-03-29T05:33:08;2.08;;;0.25;;
69534;SDS011;56754;51.568;5.048;2024-03-29T05:35:33;1.37;;;0.30;;
69534;SDS011;56754;51.568;5.048;2024-03-29T05:37:58;0.77;;;0.20;;
69534;SDS011;56754;51.568;5.048;2024-03-29T05:40:24;1.70;;;0.30;;
69534;SDS011;56754;51.568;5.048;2024-03-29T05:42:49;2.30;;;0.30;;
69534;SDS011;56754;51.568;5.048;2024-03-29T05:45:27;1.80;;;0.10;;
69534;SDS011;56754;51.568;5.048;2024-03-29T05:47:54;1.48;;;0.10;;
69534;SDS011;56754;51.568;5.048;2024-03-29T05:50:21;1.60;;;0.20;;
69534;SDS011;56754;51.568;5.048;2024-03-29T05:52:48;2.05;;;0.20;;
69534;SDS011;56754;51.568;5.048;2024-03-29T05:55:13;2.93;;;0.20;;
69534;SDS011;56754;51.568;5.048;2024-03-29T05:57:39;2.20;;;0.20;;
69534;SDS011;56754;51.568;5.048;2024-03-29T06:00:05;3.08;;;0.30;;
69534;SDS011;56754;51.568;5.048;2024-03-29T06:02:30;2.97;;;0.33;;
69534;SDS011;56754;51.568;5.048;2024-03-29T06:04:56;2.23;;;0.20;;
69534;SDS011;56754;51.568;5.048;2024-03-29T06:07:21;1.90;;;0.20;;
69534;SDS011;56754;51.568;5.048;2024-03-29T06:09:46;1.50;;;0.20;;
69534;SDS011;56754;51.568;5.048;2024-03-29T06:12:12;2.53;;;0.20;;
69534;SDS011;56754;51.568;5.048;2024-03-29T06:14:37;1.17;;;0.20;;
69534;SDS011;56754;51.568;5.048;2024-03-29T06:19:47;0.65;;;0.10;;
69534;SDS011;56754;51.568;5.048;2024-03-29T06:22:12;2.97;;;0.40;;
69534;SDS011;56754;51.568;5.048;2024-03-29T06:24:37;1.13;;;0.20;;
69534;SDS011;56754;51.568;5.048;2024-03-29T06:27:06;1.73;;;0.20;;
69534;SDS011;56754;51.568;5.048;2024-03-29T06:29:31;1.58;;;0.30;;
69534;SDS011;56754;51.568;5.048;2024-03-29T06:31:57;1.07;;;0.20;;
69534;SDS011;56754;51.568;5.048;2024-03-29T06:34:22;2.13;;;0.23;;
69534;SDS011;56754;51.568;5.048;2024-03-29T06:36:47;0.90;;;0.10;;
69534;SDS011;56754;51.568;5.048;2024-03-29T06:39:13;2.70;;;0.20;;
69534;SDS011;56754;51.568;5.048;2024-03-29T06:41:38;1.70;;;0.20;;
69534;SDS011;56754;51.568;5.048;2024-03-29T06:44:03;2.00;;;0.30;;
69534;SDS011;56754;51.568;5.048;2024-03-29T06:46:29;1.40;;;0.10;;
69534;SDS011;56754;51.568;5.048;2024-03-29T06:48:54;2.00;;;0.20;;
69534;SDS011;56754;51.568;5.048;2024-03-29T06:51:20;1.07;;;0.30;;
69534;SDS011;56754;51.568;5.048;2024-03-29T06:53:45;1.97;;;0.43;;
69534;SDS011;56754;51.568;5.048;2024-03-29T06:56:10;2.05;;;0.30;;
69534;SDS011;56754;51.568;5.048;2024-03-29T06:58:37;2.10;;;0.30;;
69534;SDS011;56754;51.568;5.048;2024-03-29T07:01:02;0.97;;;0.20;;
69534;SDS011;56754;51.568;5.048;2024-03-29T07:03:28;2.50;;;0.20;;
69534;SDS011;56754;51.568;5.048;2024-03-29T07:05:53;1.83;;;0.20;;
69534;SDS011;56754;51.568;5.048;2024-03-29T07:08:18;1.53;;;0.20;;
69534;SDS011;56754;51.568;5.048;2024-03-29T07:10:43;1.43;;;0.10;;
69534;SDS011;56754;51.568;5.048;2024-03-29T07:13:09;1.30;;;0.17;;
69534;SDS011;56754;51.568;5.048;2024-03-29T07:15:34;1.97;;;0.40;;
69534;SDS011;56754;51.568;5.048;2024-03-29T07:17:59;1.43;;;0.20;;
69534;SDS011;56754;51.568;5.048;2024-03-29T07:20:25;2.20;;;0.20;;
69534;SDS011;56754;51.568;5.048;2024-03-29T07:22:50;1.30;;;0.17;;
69534;SDS011;56754;51.568;5.048;2024-03-29T07:25:16;1.93;;;0.30;;
69534;SDS011;56754;51.568;5.048;2024-03-29T07:27:41;1.42;;;0.20;;
69534;SDS011;56754;51.568;5.048;2024-03-29T07:30:07;1.27;;;0.20;;
69534;SDS011;56754;51.568;5.048;2024-03-29T07:32:32;2.00;;;0.20;;
69534;SDS011;56754;51.568;5.048;2024-03-29T07:35:00;1.95;;;0.13;;
69534;SDS011;56754;51.568;5.048;2024-03-29T07:37:32;1.03;;;0.20;;
69534;SDS011;56754;51.568;5.048;2024-03-29T07:39:57;3.17;;;0.20;;
69534;SDS011;56754;51.568;5.048;2024-03-29T07:42:22;1.53;;;0.30;;
69534;SDS011;56754;51.568;5.048;2024-03-29T07:44:48;2.30;;;0.20;;
69534;SDS011;56754;51.568;5.048;2024-03-29T07:47:19;2.23;;;0.20;;
69534;SDS011;56754;51.568;5.048;2024-03-29T07:49:44;1.08;;;0.30;;
69534;SDS011;56754;51.568;5.048;2024-03-29T07:52:10;1.77;;;0.30;;
69534;SDS011;56754;51.568;5.048;2024-03-29T07:54:35;1.77;;;0.20;;
69534;SDS011;56754;51.568;5.048;2024-03-29T07:57:00;1.73;;;0.30;;
69534;SDS011;56754;51.568;5.048;2024-03-29T07:59:26;2.43;;;0.20;;
69534;SDS011;56754;51.568;5.048;2024-03-29T08:01:52;2.25;;;0.20;;
69534;SDS011;56754;51.568;5.048;2024-03-29T08:04:17;1.70;;;0.30;;
69534;SDS011;56754;51.568;5.048;2024-03-29T08:06:43;3.40;;;0.30;;
69534;SDS011;56754;51.568;5.048;2024-03-29T08:09:08;3.27;;;0.30;;
69534;SDS011;56754;51.568;5.048;2024-03-29T08:11:33;0.87;;;0.20;;
69534;SDS011;56754;51.568;5.048;2024-03-29T08:13:59;2.57;;;0.30;;
69534;SDS011;56754;51.568;5.048;2024-03-29T08:16:24;2.37;;;0.10;;
69534;SDS011;56754;51.568;5.048;2024-03-29T08:18:49;1.27;;;0.20;;
69534;SDS011;56754;51.568;5.048;2024-03-29T08:21:16;3.20;;;0.30;;
69534;SDS011;56754;51.568;5.048;2024-03-29T08:23:41;1.88;;;0.13;;
69534;SDS011;56754;51.568;5.048;2024-03-29T08:26:07;1.87;;;0.20;;
69534;SDS011;56754;51.568;5.048;2024-03-29T08:28:33;1.75;;;0.30;;
69534;SDS011;56754;51.568;5.048;2024-03-29T08:30:59;1.75;;;0.22;;
69534;SDS011;56754;51.568;5.048;2024-03-29T08:33:25;1.13;;;0.20;;
69534;SDS011;56754;51.568;5.048;2024-03-29T08:35:50;1.30;;;0.22;;
69534;SDS011;56754;51.568;5.048;2024-03-29T08:38:16;2.07;;;0.30;;
69534;SDS011;56754;51.568;5.048;2024-03-29T08:40:41;2.10;;;0.30;;
69534;SDS011;56754;51.568;5.048;2024-03-29T08:43:07;1.70;;;0.40;;
69534;SDS011;56754;51.568;5.048;2024-03-29T08:45:33;2.13;;;0.28;;
69534;SDS011;56754;51.568;5.048;2024-03-29T08:47:58;3.83;;;0.40;;
69534;SDS011;56754;51.568;5.048;2024-03-29T08:50:23;2.83;;;0.40;;
69534;SDS011;56754;51.568;5.048;2024-03-29T08:52:48;1.67;;;0.30;;
69534;SDS011;56754;51.568;5.048;2024-03-29T08:55:14;3.00;;;0.60;;
69534;SDS011;56754;51.568;5.048;2024-03-29T08:57:39;2.10;;;0.20;;
69534;SDS011;56754;51.568;5.048;2024-03-29T09:00:05;1.40;;;0.30;;
69534;SDS011;56754;51.568;5.048;2024-03-29T09:02:30;3.47;;;0.30;;
69534;SDS011;56754;51.568;5.048;2024-03-29T09:04:56;1.63;;;0.32;;
69534;SDS011;56754;51.568;5.048;2024-03-29T09:07:21;2.77;;;0.40;;
69534;SDS011;56754;51.568;5.048;2024-03-29T09:09:46;1.70;;;0.30;;
69534;SDS011;56754;51.568;5.048;2024-03-29T09:12:12;2.90;;;0.60;;
69534;SDS011;56754;51.568;5.048;2024-03-29T09:14:37;3.20;;;0.40;;
69534;SDS011;56754;51.568;5.048;2024-03-29T09:17:02;3.53;;;0.40;;
69534;SDS011;56754;51.568;5.048;2024-03-29T09:19:28;2.67;;;0.40;;
69534;SDS011;56754;51.568;5.048;2024-03-29T09:21:58;1.95;;;0.40;;
69534;SDS011;56754;51.568;5.048;2024-03-29T09:24:23;2.00;;;0.40;;
69534;SDS011;56754;51.568;5.048;2024-03-29T09:26:49;3.07;;;0.60;;
69534;SDS011;56754;51.568;5.048;2024-03-29T09:29:14;3.67;;;0.40;;
69534;SDS011;56754;51.568;5.048;2024-03-29T09:31:39;2.03;;;0.50;;
69534;SDS011;56754;51.568;5.048;2024-03-29T09:34:04;2.97;;;0.40;;
69534;SDS011;56754;51.568;5.048;2024-03-29T09:36:30;2.70;;;0.40;;
69534;SDS011;56754;51.568;5.048;2024-03-29T09:38:55;1.17;;;0.30;;
69534;SDS011;56754;51.568;5.048;2024-03-29T09:41:20;1.97;;;0.40;;
69534;SDS011;56754;51.568;5.048;2024-03-29T09:43:47;2.22;;;0.50;;
69534;SDS011;56754;51.568;5.048;2024-03-29T09:46:16;3.58;;;0.63;;
69534;SDS011;56754;51.568;5.048;2024-03-29T09:48:42;2.60;;;0.57;;
69534;SDS011;56754;51.568;5.048;2024-03-29T09:51:09;3.08;;;0.50;;
69534;SDS011;56754;51.568;5.048;2024-03-29T09:53:37;3.20;;;0.50;;
69534;SDS011;56754;51.568;5.048;2024-03-29T09:56:03;2.53;;;0.50;;
69534;SDS011;56754;51.568;5.048;2024-03-29T09:58:29;1.97;;;0.50;;
69534;SDS011;56754;51.568;5.048;2024-03-29T10:00:55;4.43;;;0.60;;
69534;SDS011;56754;51.568;5.048;2024-03-29T10:03:21;2.33;;;0.50;;
69534;SDS011;56754;51.568;5.048;2024-03-29T10:05:53;2.10;;;0.50;;
69534;SDS011;56754;51.568;5.048;2024-03-29T10:08:18;3.13;;;0.57;;
69534;SDS011;56754;51.568;5.048;2024-03-29T10:10:43;2.27;;;0.47;;
69534;SDS011;56754;51.568;5.048;2024-03-29T10:13:09;2.47;;;0.50;;
69534;SDS011;56754;51.568;5.048;2024-03-29T10:15:34;3.37;;;0.80;;
69534;SDS011;56754;51.568;5.048;2024-03-29T10:17:59;3.50;;;0.70;;
69534;SDS011;56754;51.568;5.048;2024-03-29T10:20:25;4.23;;;1.00;;
69534;SDS011;56754;51.568;5.048;2024-03-29T10:22:50;3.87;;;0.70;;
69534;SDS011;56754;51.568;5.048;2024-03-29T10:25:16;5.23;;;0.77;;
69534;SDS011;56754;51.568;5.048;2024-03-29T10:27:41;2.70;;;0.67;;
69534;SDS011;56754;51.568;5.048;2024-03-29T10:30:07;3.27;;;0.80;;
69534;SDS011;56754;51.568;5.048;2024-03-29T10:32:33;2.05;;;0.85;;
69534;SDS011;56754;51.568;5.048;2024-03-29T10:35:05;2.57;;;0.63;;
69534;SDS011;56754;51.568;5.048;2024-03-29T10:37:31;1.83;;;0.40;;
69534;SDS011;56754;51.568;5.048;2024-03-29T10:39:56;2.03;;;0.60;;
69534;SDS011;56754;51.568;5.048;2024-03-29T10:42:22;3.30;;;0.80;;
69534;SDS011;56754;51.568;5.048;2024-03-29T10:44:49;1.87;;;0.43;;
69534;SDS011;56754;51.568;5.048;2024-03-29T10:47:18;3.03;;;0.80;;
69534;SDS011;56754;51.568;5.048;2024-03-29T10:49:44;3.63;;;0.80;;
69534;SDS011;56754;51.568;5.048;2024-03-29T10:52:14;3.05;;;0.52;;
69534;SDS011;56754;51.568;5.048;2024-03-29T10:54:40;5.43;;;0.60;;
69534;SDS011;56754;51.568;5.048;2024-03-29T10:57:10;2.35;;;0.50;;
69534;SDS011;56754;51.568;5.048;2024-03-29T10:59:44;2.30;;;0.40;;
69534;SDS011;56754;51.568;5.048;2024-03-29T11:02:33;2.28;;;0.50;;
69534;SDS011;56754;51.568;5.048;2024-03-29T11:05:18;2.35;;;0.50;;
69534;SDS011;56754;51.568;5.048;2024-03-29T11:07:45;2.38;;;0.60;;
69534;SDS011;56754;51.568;5.048;2024-03-29T11:10:15;2.23;;;0.60;;
69534;SDS011;56754;51.568;5.048;2024-03-29T11:12:47;3.90;;;0.77;;
69534;SDS011;56754;51.568;5.048;2024-03-29T11:15:28;3.55;;;0.60;;
69534;SDS011;56754;51.568;5.048;2024-03-29T11:17:55;3.65;;;0.80;;
69534;SDS011;56754;51.568;5.048;2024-03-29T11:20:25;4.60;;;0.70;;
69534;SDS011;56754;51.568;5.048;2024-03-29T11:22:51;3.40;;;0.73;;
69534;SDS011;56754;51.568;5.048;2024-03-29T11:25:17;3.27;;;0.70;;
69534;SDS011;56754;51.568;5.048;2024-03-29T11:27:42;2.35;;;0.60;;
69534;SDS011;56754;51.568;5.048;2024-03-29T11:30:08;2.83;;;0.67;;
69534;SDS011;56754;51.568;5.048;2024-03-29T11:32:37;3.83;;;0.60;;
69534;SDS011;56754;51.568;5.048;2024-03-29T11:35:03;2.95;;;0.70;;
69534;SDS011;56754;51.568;5.048;2024-03-29T11:37:41;2.78;;;0.70;;
69534;SDS011;56754;51.568;5.048;2024-03-29T11:40:07;2.27;;;0.67;;
69534;SDS011;56754;51.568;5.048;2024-03-29T11:42:38;2.60;;;0.70;;
69534;SDS011;56754;51.568;5.048;2024-03-29T11:45:04;3.25;;;0.73;;
69534;SDS011;56754;51.568;5.048;2024-03-29T11:47:30;2.40;;;0.50;;
69534;SDS011;56754;51.568;5.048;2024-03-29T11:49:57;2.20;;;0.53;;
69534;SDS011;56754;51.568;5.048;2024-03-29T11:52:23;1.77;;;0.40;;
69534;SDS011;56754;51.568;5.048;2024-03-29T11:54:49;2.03;;;0.50;;
69534;SDS011;56754;51.568;5.048;2024-03-29T11:57:14;2.40;;;0.57;;
69534;SDS011;56754;51.568;5.048;2024-03-29T11:59:39;2.33;;;0.40;;
69534;SDS011;56754;51.568;5.048;2024-03-29T12:02:04;2.03;;;0.52;;
69534;SDS011;56754;51.568;5.048;2024-03-29T12:04:39;2.33;;;0.40;;
69534;SDS011;56754;51.568;5.048;2024-03-29T12:07:05;1.60;;;0.40;;
69534;SDS011;56754;51.568;5.048;2024-03-29T12:09:30;1.77;;;0.40;;
69534;SDS011;56754;51.568;5.048;2024-03-29T12:11:56;2.73;;;0.50;;
69534;SDS011;56754;51.568;5.048;2024-03-29T12:14:21;2.42;;;0.30;;
69534;SDS011;56754;51.568;5.048;2024-03-29T12:16:47;1.73;;;0.30;;
69534;SDS011;56754;51.568;5.048;2024-03-29T12:19:24;1.35;;;0.22;;
69534;SDS011;56754;51.568;5.048;2024-03-29T12:21:50;1.67;;;0.32;;
69534;SDS011;56754;51.568;5.048;2024-03-29T12:24:16;1.33;;;0.30;;
69534;SDS011;56754;51.568;5.048;2024-03-29T12:26:41;1.53;;;0.30;;
69534;SDS011;56754;51.568;5.048;2024-03-29T12:29:07;2.75;;;0.30;;
69534;SDS011;56754;51.568;5.048;2024-03-29T12:31:32;1.03;;;0.20;;
69534;SDS011;56754;51.568;5.048;2024-03-29T12:33:58;1.07;;;0.20;;
69534;SDS011;56754;51.568;5.048;2024-03-29T12:36:23;1.03;;;0.20;;
69534;SDS011;56754;51.568;5.048;2024-03-29T12:38:50;1.52;;;0.40;;
69534;SDS011;56754;51.568;5.048;2024-03-29T12:41:15;1.03;;;0.30;;
69534;SDS011;56754;51.568;5.048;2024-03-29T12:43:40;2.47;;;0.43;;
69534;SDS011;56754;51.568;5.048;2024-03-29T12:46:06;2.77;;;0.40;;
69534;SDS011;56754;51.568;5.048;2024-03-29T12:48:32;1.80;;;0.40;;
69534;SDS011;56754;51.568;5.048;2024-03-29T12:51:03;1.85;;;0.40;;
69534;SDS011;56754;51.568;5.048;2024-03-29T12:53:29;1.08;;;0.20;;
69534;SDS011;56754;51.568;5.048;2024-03-29T12:55:54;1.83;;;0.37;;
69534;SDS011;56754;51.568;5.048;2024-03-29T12:58:19;0.93;;;0.23;;
69534;SDS011;56754;51.568;5.048;2024-03-29T13:00:45;1.77;;;0.50;;
69534;SDS011;56754;51.568;5.048;2024-03-29T13:03:10;3.37;;;0.47;;
69534;SDS011;56754;51.568;5.048;2024-03-29T13:05:56;1.80;;;0.30;;
69534;SDS011;56754;51.568;5.048;2024-03-29T13:08:21;1.63;;;0.20;;
69534;SDS011;56754;51.568;5.048;2024-03-29T13:10:47;2.53;;;0.60;;
69534;SDS011;56754;51.568;5.048;2024-03-29T13:13:12;0.70;;;0.20;;
69534;SDS011;56754;51.568;5.048;2024-03-29T13:15:38;2.08;;;0.30;;
69534;SDS011;56754;51.568;5.048;2024-03-29T13:18:04;2.20;;;0.30;;
69534;SDS011;56754;51.568;5.048;2024-03-29T13:20:31;1.80;;;0.40;;
69534;SDS011;56754;51.568;5.048;2024-03-29T13:22:58;1.58;;;0.30;;
69534;SDS011;56754;51.568;5.048;2024-03-29T13:25:23;1.13;;;0.30;;
69534;SDS011;56754;51.568;5.048;2024-03-29T13:27:49;1.57;;;0.20;;
69534;SDS011;56754;51.568;5.048;2024-03-29T13:30:18;3.10;;;0.40;;
69534;SDS011;56754;51.568;5.048;2024-03-29T13:32:43;1.83;;;0.40;;
69534;SDS011;56754;51.568;5.048;2024-03-29T13:35:08;2.90;;;0.57;;
69534;SDS011;56754;51.568;5.048;2024-03-29T13:37:34;1.00;;;0.20;;
69534;SDS011;56754;51.568;5.048;2024-03-29T13:40:02;3.55;;;0.20;;
69534;SDS011;56754;51.568;5.048;2024-03-29T13:42:27;1.30;;;0.30;;
69534;SDS011;56754;51.568;5.048;2024-03-29T13:44:54;2.20;;;0.33;;
69534;SDS011;56754;51.568;5.048;2024-03-29T13:47:19;1.55;;;0.22;;
69534;SDS011;56754;51.568;5.048;2024-03-29T13:49:47;0.80;;;0.20;;
69534;SDS011;56754;51.568;5.048;2024-03-29T13:52:13;0.95;;;0.20;;
69534;SDS011;56754;51.568;5.048;2024-03-29T13:54:41;2.03;;;0.20;;
69534;SDS011;56754;51.568;5.048;2024-03-29T13:57:07;1.13;;;0.22;;
69534;SDS011;56754;51.568;5.048;2024-03-29T13:59:32;1.90;;;0.40;;
69534;SDS011;56754;51.568;5.048;2024-03-29T14:01:58;2.30;;;0.40;;
69534;SDS011;56754;51.568;5.048;2024-03-29T14:04:23;1.10;;;0.40;;
69534;SDS011;56754;51.568;5.048;2024-03-29T14:06:48;1.13;;;0.20;;
69534;SDS011;56754;51.568;5.048;2024-03-29T14:09:14;2.63;;;0.40;;
69534;SDS011;56754;51.568;5.048;2024-03-29T14:11:43;2.00;;;0.30;;
69534;SDS011;56754;51.568;5.048;2024-03-29T14:14:08;1.43;;;0.40;;
69534;SDS011;56754;51.568;5.048;2024-03-29T14:16:34;1.08;;;0.30;;
69534;SDS011;56754;51.568;5.048;2024-03-29T14:18:59;2.30;;;0.30;;
69534;SDS011;56754;51.568;5.048;2024-03-29T14:21:24;1.73;;;0.20;;
69534;SDS011;56754;51.568;5.048;2024-03-29T14:23:50;1.83;;;0.60;;
69534;SDS011;56754;51.568;5.048;2024-03-29T14:26:15;0.97;;;0.23;;
69534;SDS011;56754;51.568;5.048;2024-03-29T14:28:40;1.77;;;0.30;;
69534;SDS011;56754;51.568;5.048;2024-03-29T14:31:06;2.03;;;0.30;;
69534;SDS011;56754;51.568;5.048;2024-03-29T14:33:31;1.80;;;0.30;;
69534;SDS011;56754;51.568;5.048;2024-03-29T14:35:56;1.10;;;0.20;;
69534;SDS011;56754;51.568;5.048;2024-03-29T14:38:22;1.43;;;0.20;;
69534;SDS011;56754;51.568;5.048;2024-03-29T14:40:47;1.43;;;0.30;;
69534;SDS011;56754;51.568;5.048;2024-03-29T14:43:12;0.87;;;0.20;;